sensor_id;sensor_type;location;lat;lon;timestamp;P1;durP1;ratioP1;P2;durP2;ratioP2
20399;SDS011;10359;53.596;22.520;2023-07-29T00:06:50;18.43;;;11.60;;
20399;SDS011;10359;53.596;22.520;2023-07-29T00:13:40;39.37;;;16.07;;
20399;SDS011;10359;53.596;22.520;2023-07-29T00:20:33;17.70;;;11.30;;
20399;SDS011;10359;53.596;22.520;2023-07-29T00:27:24;30.23;;;14.33;;
20399;SDS011;10359;53.596;22.520;2023-07-29T00:33:58;17.70;;;11.30;;
20399;SDS011;10359;53.596;22.520;2023-07-29T00:40:51;33.37;;;14.20;;
20399;SDS011;10359;53.596;22.520;2023-07-29T00:47:42;17.47;;;10.07;;
20399;SDS011;10359;53.596;22.520;2023-07-29T00:54:14;21.97;;;11.70;;
20399;SDS011;10359;53.596;22.520;2023-07-29T01:00:29;14.40;;;9.77;;
20399;SDS011;10359;53.596;22.520;2023-07-29T01:07:21;16.00;;;10.70;;
20399;SDS011;10359;53.596;22.520;2023-07-29T01:14:21;17.50;;;11.53;;
20399;SDS011;10359;53.596;22.520;2023-07-29T01:21:16;38.40;;;16.27;;
20399;SDS011;10359;53.596;22.520;2023-07-29T01:28:15;21.27;;;13.77;;
20399;SDS011;10359;53.596;22.520;2023-07-29T01:35:15;21.57;;;13.67;;
20399;SDS011;10359;53.596;22.520;2023-07-29T01:42:13;15.97;;;12.33;;
20399;SDS011;10359;53.596;22.520;2023-07-29T01:48:50;47.60;;;18.13;;
20399;SDS011;10359;53.596;22.520;2023-07-29T01:55:21;27.67;;;15.17;;
20399;SDS011;10359;53.596;22.520;2023-07-29T02:01:54;18.73;;;14.03;;
20399;SDS011;10359;53.596;22.520;2023-07-29T02:08:29;18.10;;;12.23;;
20399;SDS011;10359;53.596;22.520;2023-07-29T02:15:30;14.27;;;11.70;;
20399;SDS011;10359;53.596;22.520;2023-07-29T02:22:38;16.67;;;11.37;;
20399;SDS011;10359;53.596;22.520;2023-07-29T02:29:47;19.80;;;12.83;;
20399;SDS011;10359;53.596;22.520;2023-07-29T02:36:38;22.20;;;13.17;;
20399;SDS011;10359;53.596;22.520;2023-07-29T02:42:27;42.33;;;16.73;;
20399;SDS011;10359;53.596;22.520;2023-07-29T02:49:19;34.47;;;16.00;;
20399;SDS011;10359;53.596;22.520;2023-07-29T02:56:11;21.90;;;13.50;;
20399;SDS011;10359;53.596;22.520;2023-07-29T03:03:02;22.63;;;15.10;;
20399;SDS011;10359;53.596;22.520;2023-07-29T03:09:38;39.03;;;17.17;;
20399;SDS011;10359;53.596;22.520;2023-07-29T03:16:30;24.30;;;15.80;;
20399;SDS011;10359;53.596;22.520;2023-07-29T03:23:03;29.07;;;16.93;;
20399;SDS011;10359;53.596;22.520;2023-07-29T03:29:56;15.20;;;11.23;;
20399;SDS011;10359;53.596;22.520;2023-07-29T03:36:48;26.27;;;13.50;;
20399;SDS011;10359;53.596;22.520;2023-07-29T03:43:40;41.80;;;16.77;;
20399;SDS011;10359;53.596;22.520;2023-07-29T03:50:32;38.33;;;18.23;;
20399;SDS011;10359;53.596;22.520;2023-07-29T03:57:24;25.40;;;16.67;;
20399;SDS011;10359;53.596;22.520;2023-07-29T04:03:34;31.43;;;17.10;;
20399;SDS011;10359;53.596;22.520;2023-07-29T04:16:41;61.27;;;22.60;;
20399;SDS011;10359;53.596;22.520;2023-07-29T04:22:51;28.37;;;17.67;;
20399;SDS011;10359;53.596;22.520;2023-07-29T04:32:26;70.47;;;24.53;;
20399;SDS011;10359;53.596;22.520;2023-07-29T04:38:37;33.20;;;18.57;;
20399;SDS011;10359;53.596;22.520;2023-07-29T04:48:29;52.73;;;22.60;;
20399;SDS011;10359;53.596;22.520;2023-07-29T04:54:38;28.50;;;17.27;;
20399;SDS011;10359;53.596;22.520;2023-07-29T05:00:49;30.77;;;20.13;;
20399;SDS011;10359;53.596;22.520;2023-07-29T05:07:00;26.70;;;18.97;;
20399;SDS011;10359;53.596;22.520;2023-07-29T05:13:10;42.43;;;20.70;;
20399;SDS011;10359;53.596;22.520;2023-07-29T05:22:46;24.50;;;16.67;;
20399;SDS011;10359;53.596;22.520;2023-07-29T05:28:56;25.93;;;16.47;;
20399;SDS011;10359;53.596;22.520;2023-07-29T05:35:06;23.03;;;16.30;;
20399;SDS011;10359;53.596;22.520;2023-07-29T05:44:59;14.90;;;11.77;;
20399;SDS011;10359;53.596;22.520;2023-07-29T05:51:09;14.67;;;11.07;;
20399;SDS011;10359;53.596;22.520;2023-07-29T05:57:19;12.07;;;10.77;;
20399;SDS011;10359;53.596;22.520;2023-07-29T06:03:31;11.53;;;9.90;;
20399;SDS011;10359;53.596;22.520;2023-07-29T06:13:23;9.43;;;8.50;;
20399;SDS011;10359;53.596;22.520;2023-07-29T06:19:35;9.03;;;8.13;;
20399;SDS011;10359;53.596;22.520;2023-07-29T06:25:46;10.13;;;7.87;;
20399;SDS011;10359;53.596;22.520;2023-07-29T06:31:58;8.60;;;7.37;;
20399;SDS011;10359;53.596;22.520;2023-07-29T06:41:34;6.50;;;5.80;;
20399;SDS011;10359;53.596;22.520;2023-07-29T06:47:44;7.33;;;6.40;;
20399;SDS011;10359;53.596;22.520;2023-07-29T06:53:54;7.80;;;7.07;;
20399;SDS011;10359;53.596;22.520;2023-07-29T07:03:30;6.27;;;5.63;;
20399;SDS011;10359;53.596;22.520;2023-07-29T07:09:23;6.50;;;5.90;;
20399;SDS011;10359;53.596;22.520;2023-07-29T07:18:58;12.73;;;5.67;;
20399;SDS011;10359;53.596;22.520;2023-07-29T07:25:09;8.00;;;5.27;;
20399;SDS011;10359;53.596;22.520;2023-07-29T07:31:19;7.30;;;5.80;;
20399;SDS011;10359;53.596;22.520;2023-07-29T07:40:54;6.37;;;4.17;;
20399;SDS011;10359;53.596;22.520;2023-07-29T07:54:10;5.53;;;4.33;;
20399;SDS011;10359;53.596;22.520;2023-07-29T08:00:22;6.77;;;4.67;;
20399;SDS011;10359;53.596;22.520;2023-07-29T08:06:32;6.07;;;4.33;;
20399;SDS011;10359;53.596;22.520;2023-07-29T08:12:44;5.70;;;4.33;;
20399;SDS011;10359;53.596;22.520;2023-07-29T08:18:55;5.40;;;4.03;;
20399;SDS011;10359;53.596;22.520;2023-07-29T08:25:07;4.47;;;3.90;;
20399;SDS011;10359;53.596;22.520;2023-07-29T08:34:42;3.53;;;3.23;;
20399;SDS011;10359;53.596;22.520;2023-07-29T08:40:54;7.27;;;3.30;;
20399;SDS011;10359;53.596;22.520;2023-07-29T08:47:08;4.10;;;3.80;;
20399;SDS011;10359;53.596;22.520;2023-07-29T08:53:20;4.77;;;3.30;;
20399;SDS011;10359;53.596;22.520;2023-07-29T08:59:31;3.93;;;3.30;;
20399;SDS011;10359;53.596;22.520;2023-07-29T09:05:42;3.20;;;2.90;;
20399;SDS011;10359;53.596;22.520;2023-07-29T09:11:54;4.53;;;3.00;;
20399;SDS011;10359;53.596;22.520;2023-07-29T09:25:29;4.53;;;3.20;;
20399;SDS011;10359;53.596;22.520;2023-07-29T09:38:45;6.47;;;3.20;;
20399;SDS011;10359;53.596;22.520;2023-07-29T09:44:56;3.17;;;2.87;;
20399;SDS011;10359;53.596;22.520;2023-07-29T09:54:31;3.83;;;2.90;;
20399;SDS011;10359;53.596;22.520;2023-07-29T10:03:33;2.63;;;2.43;;
20399;SDS011;10359;53.596;22.520;2023-07-29T10:09:46;3.60;;;2.53;;
20399;SDS011;10359;53.596;22.520;2023-07-29T10:16:00;2.83;;;2.60;;
20399;SDS011;10359;53.596;22.520;2023-07-29T10:22:12;5.30;;;2.67;;
20399;SDS011;10359;53.596;22.520;2023-07-29T10:43:12;2.80;;;2.60;;
20399;SDS011;10359;53.596;22.520;2023-07-29T11:32:55;3.53;;;2.70;;
20399;SDS011;10359;53.596;22.520;2023-07-29T11:46:14;2.80;;;2.42;;
20399;SDS011;10359;53.596;22.520;2023-07-29T12:09:53;5.43;;;2.70;;
20399;SDS011;10359;53.596;22.520;2023-07-29T12:16:05;3.63;;;2.50;;
20399;SDS011;10359;53.596;22.520;2023-07-29T12:22:17;3.70;;;2.30;;
20399;SDS011;10359;53.596;22.520;2023-07-29T12:28:30;2.50;;;2.13;;
20399;SDS011;10359;53.596;22.520;2023-07-29T12:34:40;4.35;;;2.38;;
20399;SDS011;10359;53.596;22.520;2023-07-29T12:44:16;2.58;;;2.38;;
20399;SDS011;10359;53.596;22.520;2023-07-29T12:53:19;2.45;;;2.25;;
20399;SDS011;10359;53.596;22.520;2023-07-29T12:59:31;2.40;;;2.17;;
20399;SDS011;10359;53.596;22.520;2023-07-29T13:05:41;4.55;;;2.80;;
20399;SDS011;10359;53.596;22.520;2023-07-29T13:11:51;3.13;;;2.35;;
20399;SDS011;10359;53.596;22.520;2023-07-29T13:18:03;2.22;;;2.08;;
20399;SDS011;10359;53.596;22.520;2023-07-29T13:30:43;4.20;;;2.85;;
20399;SDS011;10359;53.596;22.520;2023-07-29T13:36:54;2.08;;;1.98;;
20399;SDS011;10359;53.596;22.520;2023-07-29T13:43:04;2.20;;;2.08;;
20399;SDS011;10359;53.596;22.520;2023-07-29T13:49:15;5.75;;;3.53;;
20399;SDS011;10359;53.596;22.520;2023-07-29T13:58:23;2.92;;;2.47;;
20399;SDS011;10359;53.596;22.520;2023-07-29T14:08:14;3.28;;;2.33;;
20399;SDS011;10359;53.596;22.520;2023-07-29T14:14:26;2.83;;;2.58;;
20399;SDS011;10359;53.596;22.520;2023-07-29T14:20:36;3.05;;;2.47;;
20399;SDS011;10359;53.596;22.520;2023-07-29T14:26:46;3.10;;;2.83;;
20399;SDS011;10359;53.596;22.520;2023-07-29T14:36:22;3.08;;;2.50;;
20399;SDS011;10359;53.596;22.520;2023-07-29T14:42:36;2.70;;;2.50;;
20399;SDS011;10359;53.596;22.520;2023-07-29T14:48:46;3.30;;;2.40;;
20399;SDS011;10359;53.596;22.520;2023-07-29T14:54:57;3.28;;;2.65;;
20399;SDS011;10359;53.596;22.520;2023-07-29T14:57:34;3.95;;;3.00;;
20399;SDS011;10359;53.596;22.520;2023-07-29T15:03:44;3.47;;;2.58;;
20399;SDS011;10359;53.596;22.520;2023-07-29T15:09:55;2.60;;;2.40;;
20399;SDS011;10359;53.596;22.520;2023-07-29T15:19:15;3.83;;;2.67;;
20399;SDS011;10359;53.596;22.520;2023-07-29T15:24:35;3.17;;;2.30;;
20399;SDS011;10359;53.596;22.520;2023-07-29T15:44:05;3.15;;;2.90;;
20399;SDS011;10359;53.596;22.520;2023-07-29T15:46:34;3.30;;;3.00;;
20399;SDS011;10359;53.596;22.520;2023-07-29T15:52:46;2.90;;;2.70;;
20399;SDS011;10359;53.596;22.520;2023-07-29T15:58:06;3.38;;;2.80;;
20399;SDS011;10359;53.596;22.520;2023-07-29T16:04:16;4.68;;;3.30;;
20399;SDS011;10359;53.596;22.520;2023-07-29T16:27:09;3.15;;;2.85;;
20399;SDS011;10359;53.596;22.520;2023-07-29T16:53:06;4.60;;;2.80;;
20399;SDS011;10359;53.596;22.520;2023-07-29T17:09:17;2.83;;;2.50;;
20399;SDS011;10359;53.596;22.520;2023-07-29T17:25:29;2.80;;;2.60;;
20399;SDS011;10359;53.596;22.520;2023-07-29T17:35:04;3.03;;;2.23;;
20399;SDS011;10359;53.596;22.520;2023-07-29T17:41:17;2.47;;;2.27;;
20399;SDS011;10359;53.596;22.520;2023-07-29T17:50:51;3.87;;;2.40;;
20399;SDS011;10359;53.596;22.520;2023-07-29T18:00:27;3.63;;;2.37;;
20399;SDS011;10359;53.596;22.520;2023-07-29T18:09:27;2.80;;;2.50;;
20399;SDS011;10359;53.596;22.520;2023-07-29T18:15:39;3.10;;;2.53;;
20399;SDS011;10359;53.596;22.520;2023-07-29T18:21:49;2.90;;;2.67;;
20399;SDS011;10359;53.596;22.520;2023-07-29T18:27:59;3.03;;;2.60;;
20399;SDS011;10359;53.596;22.520;2023-07-29T18:34:11;3.13;;;2.70;;
20399;SDS011;10359;53.596;22.520;2023-07-29T18:40:22;3.93;;;2.80;;
20399;SDS011;10359;53.596;22.520;2023-07-29T18:53:10;2.90;;;2.63;;
20399;SDS011;10359;53.596;22.520;2023-07-29T19:02:46;3.80;;;2.60;;
20399;SDS011;10359;53.596;22.520;2023-07-29T19:14:48;5.77;;;3.13;;
20399;SDS011;10359;53.596;22.520;2023-07-29T19:20:58;4.67;;;2.70;;
20399;SDS011;10359;53.596;22.520;2023-07-29T19:39:51;3.27;;;2.97;;
20399;SDS011;10359;53.596;22.520;2023-07-29T19:49:25;3.27;;;2.97;;
20399;SDS011;10359;53.596;22.520;2023-07-29T19:55:38;3.53;;;3.07;;
20399;SDS011;10359;53.596;22.520;2023-07-29T20:08:54;3.07;;;2.87;;
20399;SDS011;10359;53.596;22.520;2023-07-29T20:15:08;4.73;;;2.90;;
20399;SDS011;10359;53.596;22.520;2023-07-29T20:17:47;3.20;;;2.70;;
20399;SDS011;10359;53.596;22.520;2023-07-29T20:23:58;3.20;;;2.90;;
20399;SDS011;10359;53.596;22.520;2023-07-29T20:30:15;3.40;;;3.10;;
20399;SDS011;10359;53.596;22.520;2023-07-29T20:40:07;3.37;;;3.00;;
20399;SDS011;10359;53.596;22.520;2023-07-29T20:52:58;3.33;;;3.03;;
20399;SDS011;10359;53.596;22.520;2023-07-29T20:59:10;4.23;;;3.00;;
20399;SDS011;10359;53.596;22.520;2023-07-29T21:05:23;5.03;;;3.07;;
20399;SDS011;10359;53.596;22.520;2023-07-29T21:15:16;3.93;;;3.57;;
20399;SDS011;10359;53.596;22.520;2023-07-29T21:25:08;6.17;;;3.53;;
20399;SDS011;10359;53.596;22.520;2023-07-29T21:34:42;5.67;;;5.00;;
20399;SDS011;10359;53.596;22.520;2023-07-29T21:54:16;8.17;;;6.17;;
20399;SDS011;10359;53.596;22.520;2023-07-29T22:09:40;6.30;;;4.90;;
20399;SDS011;10359;53.596;22.520;2023-07-29T22:15:50;6.00;;;4.70;;
20399;SDS011;10359;53.596;22.520;2023-07-29T22:21:59;3.80;;;3.50;;
20399;SDS011;10359;53.596;22.520;2023-07-29T22:28:10;7.10;;;3.67;;
20399;SDS011;10359;53.596;22.520;2023-07-29T22:37:43;3.77;;;3.23;;
20399;SDS011;10359;53.596;22.520;2023-07-29T22:43:54;5.67;;;4.07;;
20399;SDS011;10359;53.596;22.520;2023-07-29T22:50:05;4.47;;;3.70;;
20399;SDS011;10359;53.596;22.520;2023-07-29T23:05:58;5.90;;;4.00;;
20399;SDS011;10359;53.596;22.520;2023-07-29T23:15:49;4.40;;;3.97;;
20399;SDS011;10359;53.596;22.520;2023-07-29T23:25:25;5.13;;;3.83;;
20399;SDS011;10359;53.596;22.520;2023-07-29T23:34:58;4.30;;;3.90;;
20399;SDS011;10359;53.596;22.520;2023-07-29T23:47:44;9.43;;;5.40;;
20399;SDS011;10359;53.596;22.520;2023-07-29T23:53:54;12.00;;;5.77;;
